sensor_id;sensor_type;location;lat;lon;timestamp;P1;durP1;ratioP1;P2;durP2;ratioP2
20090;SDS011;10205;49.678;6.560;2023-07-08T00:00:26;3.70;;;3.38;;
20090;SDS011;10205;49.678;6.560;2023-07-08T00:02:59;4.28;;;3.88;;
20090;SDS011;10205;49.678;6.560;2023-07-08T00:05:26;4.63;;;4.13;;
20090;SDS011;10205;49.678;6.560;2023-07-08T00:07:53;5.28;;;4.20;;
20090;SDS011;10205;49.678;6.560;2023-07-08T00:10:21;4.53;;;4.07;;
20090;SDS011;10205;49.678;6.560;2023-07-08T00:13:01;4.40;;;3.88;;
20090;SDS011;10205;49.678;6.560;2023-07-08T00:15:30;4.82;;;4.20;;
20090;SDS011;10205;49.678;6.560;2023-07-08T00:17:59;4.88;;;4.13;;
20090;SDS011;10205;49.678;6.560;2023-07-08T00:20:28;4.80;;;3.78;;
20090;SDS011;10205;49.678;6.560;2023-07-08T00:23:02;4.78;;;4.28;;
20090;SDS011;10205;49.678;6.560;2023-07-08T00:25:29;5.70;;;3.95;;
20090;SDS011;10205;49.678;6.560;2023-07-08T00:27:58;5.03;;;4.10;;
20090;SDS011;10205;49.678;6.560;2023-07-08T00:30:27;5.32;;;4.03;;
20090;SDS011;10205;49.678;6.560;2023-07-08T00:32:56;4.25;;;3.60;;
20090;SDS011;10205;49.678;6.560;2023-07-08T00:35:26;5.68;;;4.13;;
20090;SDS011;10205;49.678;6.560;2023-07-08T00:37:59;4.13;;;3.50;;
20090;SDS011;10205;49.678;6.560;2023-07-08T00:40:28;4.43;;;3.97;;
20090;SDS011;10205;49.678;6.560;2023-07-08T00:42:58;4.35;;;3.70;;
20090;SDS011;10205;49.678;6.560;2023-07-08T00:45:35;5.00;;;3.88;;
20090;SDS011;10205;49.678;6.560;2023-07-08T00:48:11;4.90;;;4.03;;
20090;SDS011;10205;49.678;6.560;2023-07-08T00:50:48;5.50;;;4.03;;
20090;SDS011;10205;49.678;6.560;2023-07-08T00:53:27;4.82;;;3.92;;
20090;SDS011;10205;49.678;6.560;2023-07-08T00:55:57;4.38;;;3.80;;
20090;SDS011;10205;49.678;6.560;2023-07-08T00:58:46;5.00;;;4.20;;
20090;SDS011;10205;49.678;6.560;2023-07-08T01:01:24;5.03;;;4.22;;
20090;SDS011;10205;49.678;6.560;2023-07-08T01:03:54;4.47;;;4.07;;
20090;SDS011;10205;49.678;6.560;2023-07-08T01:06:27;4.20;;;3.80;;
20090;SDS011;10205;49.678;6.560;2023-07-08T01:09:12;4.80;;;4.28;;
20090;SDS011;10205;49.678;6.560;2023-07-08T01:11:41;5.78;;;4.68;;
20090;SDS011;10205;49.678;6.560;2023-07-08T01:14:09;5.22;;;4.32;;
20090;SDS011;10205;49.678;6.560;2023-07-08T01:19:39;4.60;;;4.00;;
20090;SDS011;10205;49.678;6.560;2023-07-08T01:22:08;5.22;;;4.43;;
20090;SDS011;10205;49.678;6.560;2023-07-08T01:24:38;4.88;;;4.30;;
20090;SDS011;10205;49.678;6.560;2023-07-08T01:27:10;5.15;;;4.10;;
20090;SDS011;10205;49.678;6.560;2023-07-08T01:29:41;5.28;;;4.05;;
20090;SDS011;10205;49.678;6.560;2023-07-08T01:32:20;7.75;;;4.22;;
20090;SDS011;10205;49.678;6.560;2023-07-08T01:34:47;4.72;;;4.25;;
20090;SDS011;10205;49.678;6.560;2023-07-08T01:37:28;4.88;;;4.15;;
20090;SDS011;10205;49.678;6.560;2023-07-08T01:40:13;4.88;;;4.30;;
20090;SDS011;10205;49.678;6.560;2023-07-08T01:42:51;5.18;;;3.97;;
20090;SDS011;10205;49.678;6.560;2023-07-08T01:45:20;5.00;;;4.32;;
20090;SDS011;10205;49.678;6.560;2023-07-08T01:47:51;4.88;;;4.18;;
20090;SDS011;10205;49.678;6.560;2023-07-08T01:50:25;5.00;;;4.50;;
20090;SDS011;10205;49.678;6.560;2023-07-08T01:52:56;6.82;;;4.43;;
20090;SDS011;10205;49.678;6.560;2023-07-08T01:55:26;4.70;;;4.07;;
20090;SDS011;10205;49.678;6.560;2023-07-08T01:58:04;4.57;;;4.15;;
20090;SDS011;10205;49.678;6.560;2023-07-08T02:00:31;4.95;;;4.32;;
20090;SDS011;10205;49.678;6.560;2023-07-08T02:02:59;5.60;;;4.65;;
20090;SDS011;10205;49.678;6.560;2023-07-08T02:05:26;5.05;;;4.43;;
20090;SDS011;10205;49.678;6.560;2023-07-08T02:07:53;4.88;;;4.38;;
20090;SDS011;10205;49.678;6.560;2023-07-08T02:10:22;5.55;;;4.95;;
20090;SDS011;10205;49.678;6.560;2023-07-08T02:15:45;5.65;;;3.88;;
20090;SDS011;10205;49.678;6.560;2023-07-08T02:18:12;4.80;;;4.30;;
20090;SDS011;10205;49.678;6.560;2023-07-08T02:20:40;4.65;;;3.70;;
20090;SDS011;10205;49.678;6.560;2023-07-08T02:23:19;4.30;;;3.88;;
20090;SDS011;10205;49.678;6.560;2023-07-08T02:25:50;6.82;;;4.82;;
20090;SDS011;10205;49.678;6.560;2023-07-08T02:28:18;4.40;;;3.95;;
20090;SDS011;10205;49.678;6.560;2023-07-08T02:30:45;6.55;;;4.13;;
20090;SDS011;10205;49.678;6.560;2023-07-08T02:33:13;5.22;;;4.13;;
20090;SDS011;10205;49.678;6.560;2023-07-08T02:35:42;4.95;;;4.20;;
20090;SDS011;10205;49.678;6.560;2023-07-08T02:38:10;5.43;;;4.35;;
20090;SDS011;10205;49.678;6.560;2023-07-08T02:40:39;4.38;;;3.85;;
20090;SDS011;10205;49.678;6.560;2023-07-08T02:43:06;4.50;;;4.10;;
20090;SDS011;10205;49.678;6.560;2023-07-08T02:45:33;5.22;;;3.80;;
20090;SDS011;10205;49.678;6.560;2023-07-08T02:48:02;5.00;;;4.32;;
20090;SDS011;10205;49.678;6.560;2023-07-08T02:50:29;4.68;;;3.85;;
20090;SDS011;10205;49.678;6.560;2023-07-08T02:52:57;5.63;;;4.13;;
20090;SDS011;10205;49.678;6.560;2023-07-08T02:55:24;4.80;;;3.63;;
20090;SDS011;10205;49.678;6.560;2023-07-08T02:57:52;4.35;;;3.95;;
20090;SDS011;10205;49.678;6.560;2023-07-08T03:00:20;4.68;;;4.20;;
20090;SDS011;10205;49.678;6.560;2023-07-08T03:02:47;4.40;;;4.00;;
20090;SDS011;10205;49.678;6.560;2023-07-08T03:05:14;4.50;;;3.92;;
20090;SDS011;10205;49.678;6.560;2023-07-08T03:08:00;4.13;;;3.65;;
20090;SDS011;10205;49.678;6.560;2023-07-08T03:10:27;5.15;;;4.20;;
20090;SDS011;10205;49.678;6.560;2023-07-08T03:12:56;4.90;;;4.20;;
20090;SDS011;10205;49.678;6.560;2023-07-08T03:15:23;4.78;;;3.85;;
20090;SDS011;10205;49.678;6.560;2023-07-08T03:17:50;4.53;;;3.85;;
20090;SDS011;10205;49.678;6.560;2023-07-08T03:20:18;5.43;;;4.00;;
20090;SDS011;10205;49.678;6.560;2023-07-08T03:22:46;4.82;;;4.00;;
20090;SDS011;10205;49.678;6.560;2023-07-08T03:25:13;5.63;;;4.40;;
20090;SDS011;10205;49.678;6.560;2023-07-08T03:27:57;4.78;;;3.80;;
20090;SDS011;10205;49.678;6.560;2023-07-08T03:30:25;4.68;;;3.58;;
20090;SDS011;10205;49.678;6.560;2023-07-08T03:32:53;4.47;;;4.00;;
20090;SDS011;10205;49.678;6.560;2023-07-08T03:35:20;5.57;;;4.30;;
20090;SDS011;10205;49.678;6.560;2023-07-08T03:37:48;4.30;;;3.78;;
20090;SDS011;10205;49.678;6.560;2023-07-08T03:40:15;5.13;;;4.05;;
20090;SDS011;10205;49.678;6.560;2023-07-08T03:42:54;4.32;;;3.92;;
20090;SDS011;10205;49.678;6.560;2023-07-08T03:45:23;5.82;;;4.15;;
20090;SDS011;10205;49.678;6.560;2023-07-08T03:47:52;4.55;;;4.03;;
20090;SDS011;10205;49.678;6.560;2023-07-08T03:50:20;6.03;;;4.07;;
20090;SDS011;10205;49.678;6.560;2023-07-08T03:52:53;4.75;;;3.88;;
20090;SDS011;10205;49.678;6.560;2023-07-08T03:55:22;4.70;;;3.80;;
20090;SDS011;10205;49.678;6.560;2023-07-08T03:57:49;5.45;;;4.13;;
20090;SDS011;10205;49.678;6.560;2023-07-08T04:00:17;4.75;;;3.92;;
20090;SDS011;10205;49.678;6.560;2023-07-08T04:02:55;4.32;;;3.70;;
20090;SDS011;10205;49.678;6.560;2023-07-08T04:05:22;5.13;;;4.22;;
20090;SDS011;10205;49.678;6.560;2023-07-08T04:07:50;5.60;;;4.22;;
20090;SDS011;10205;49.678;6.560;2023-07-08T04:10:17;4.95;;;3.90;;
20090;SDS011;10205;49.678;6.560;2023-07-08T04:12:44;5.00;;;3.83;;
20090;SDS011;10205;49.678;6.560;2023-07-08T04:15:11;4.78;;;3.63;;
20090;SDS011;10205;49.678;6.560;2023-07-08T04:17:41;6.43;;;4.25;;
20090;SDS011;10205;49.678;6.560;2023-07-08T04:20:15;4.70;;;4.10;;
20090;SDS011;10205;49.678;6.560;2023-07-08T04:22:51;4.25;;;3.85;;
20090;SDS011;10205;49.678;6.560;2023-07-08T04:25:18;4.45;;;3.60;;
20090;SDS011;10205;49.678;6.560;2023-07-08T04:27:45;4.68;;;3.95;;
20090;SDS011;10205;49.678;6.560;2023-07-08T04:30:16;4.50;;;3.83;;
20090;SDS011;10205;49.678;6.560;2023-07-08T04:32:50;4.45;;;3.50;;
20090;SDS011;10205;49.678;6.560;2023-07-08T04:35:19;4.47;;;3.88;;
20090;SDS011;10205;49.678;6.560;2023-07-08T04:37:46;4.65;;;3.85;;
20090;SDS011;10205;49.678;6.560;2023-07-08T04:40:16;5.47;;;4.22;;
20090;SDS011;10205;49.678;6.560;2023-07-08T04:42:46;5.38;;;4.40;;
20090;SDS011;10205;49.678;6.560;2023-07-08T04:45:15;4.68;;;4.00;;
20090;SDS011;10205;49.678;6.560;2023-07-08T04:47:43;5.10;;;4.30;;
20090;SDS011;10205;49.678;6.560;2023-07-08T04:50:12;5.03;;;4.20;;
20090;SDS011;10205;49.678;6.560;2023-07-08T04:52:40;6.07;;;4.28;;
20090;SDS011;10205;49.678;6.560;2023-07-08T04:55:08;4.97;;;4.10;;
20090;SDS011;10205;49.678;6.560;2023-07-08T04:57:51;5.63;;;4.05;;
20090;SDS011;10205;49.678;6.560;2023-07-08T05:00:18;5.47;;;4.32;;
20090;SDS011;10205;49.678;6.560;2023-07-08T05:02:45;5.57;;;4.20;;
20090;SDS011;10205;49.678;6.560;2023-07-08T05:05:13;6.20;;;4.63;;
20090;SDS011;10205;49.678;6.560;2023-07-08T05:07:42;5.95;;;4.63;;
20090;SDS011;10205;49.678;6.560;2023-07-08T05:10:09;4.75;;;3.90;;
20090;SDS011;10205;49.678;6.560;2023-07-08T05:12:36;7.25;;;4.70;;
20090;SDS011;10205;49.678;6.560;2023-07-08T05:15:04;5.47;;;4.57;;
20090;SDS011;10205;49.678;6.560;2023-07-08T05:17:49;4.72;;;3.97;;
20090;SDS011;10205;49.678;6.560;2023-07-08T05:20:17;8.73;;;4.53;;
20090;SDS011;10205;49.678;6.560;2023-07-08T05:22:49;5.28;;;4.28;;
20090;SDS011;10205;49.678;6.560;2023-07-08T05:25:17;5.80;;;4.07;;
20090;SDS011;10205;49.678;6.560;2023-07-08T05:27:46;5.65;;;4.07;;
20090;SDS011;10205;49.678;6.560;2023-07-08T05:30:14;6.35;;;4.45;;
20090;SDS011;10205;49.678;6.560;2023-07-08T05:33:03;5.18;;;4.35;;
20090;SDS011;10205;49.678;6.560;2023-07-08T05:35:30;4.57;;;3.75;;
20090;SDS011;10205;49.678;6.560;2023-07-08T05:37:58;5.30;;;4.25;;
20090;SDS011;10205;49.678;6.560;2023-07-08T05:40:25;4.82;;;3.85;;
20090;SDS011;10205;49.678;6.560;2023-07-08T05:42:53;4.68;;;3.92;;
20090;SDS011;10205;49.678;6.560;2023-07-08T05:45:20;5.13;;;4.13;;
20090;SDS011;10205;49.678;6.560;2023-07-08T05:47:47;4.25;;;3.85;;
20090;SDS011;10205;49.678;6.560;2023-07-08T05:50:14;4.80;;;4.25;;
20090;SDS011;10205;49.678;6.560;2023-07-08T05:52:42;5.13;;;4.22;;
20090;SDS011;10205;49.678;6.560;2023-07-08T05:55:10;4.70;;;4.20;;
20090;SDS011;10205;49.678;6.560;2023-07-08T05:57:38;5.32;;;4.20;;
20090;SDS011;10205;49.678;6.560;2023-07-08T06:00:05;4.75;;;3.95;;
20090;SDS011;10205;49.678;6.560;2023-07-08T06:02:34;6.30;;;4.57;;
20090;SDS011;10205;49.678;6.560;2023-07-08T06:05:01;5.40;;;4.20;;
20090;SDS011;10205;49.678;6.560;2023-07-08T06:07:29;5.07;;;4.03;;
20090;SDS011;10205;49.678;6.560;2023-07-08T06:09:57;5.47;;;4.05;;
20090;SDS011;10205;49.678;6.560;2023-07-08T06:12:26;4.97;;;4.22;;
20090;SDS011;10205;49.678;6.560;2023-07-08T06:14:55;4.57;;;3.72;;
20090;SDS011;10205;49.678;6.560;2023-07-08T06:17:22;4.43;;;3.83;;
20090;SDS011;10205;49.678;6.560;2023-07-08T06:19:50;6.15;;;4.35;;
20090;SDS011;10205;49.678;6.560;2023-07-08T06:22:29;6.85;;;4.38;;
20090;SDS011;10205;49.678;6.560;2023-07-08T06:24:56;5.28;;;4.55;;
20090;SDS011;10205;49.678;6.560;2023-07-08T06:27:23;6.20;;;4.75;;
20090;SDS011;10205;49.678;6.560;2023-07-08T06:30:13;5.68;;;4.72;;
20090;SDS011;10205;49.678;6.560;2023-07-08T06:32:40;5.40;;;4.65;;
20090;SDS011;10205;49.678;6.560;2023-07-08T06:35:25;5.22;;;4.00;;
20090;SDS011;10205;49.678;6.560;2023-07-08T06:37:53;5.60;;;4.32;;
20090;SDS011;10205;49.678;6.560;2023-07-08T06:40:20;5.15;;;4.57;;
20090;SDS011;10205;49.678;6.560;2023-07-08T06:42:49;5.60;;;4.57;;
20090;SDS011;10205;49.678;6.560;2023-07-08T06:45:16;6.15;;;4.72;;
20090;SDS011;10205;49.678;6.560;2023-07-08T06:47:43;5.28;;;4.43;;
20090;SDS011;10205;49.678;6.560;2023-07-08T06:50:11;5.53;;;4.78;;
20090;SDS011;10205;49.678;6.560;2023-07-08T06:55:24;6.65;;;4.57;;
20090;SDS011;10205;49.678;6.560;2023-07-08T06:57:53;6.60;;;5.13;;
20090;SDS011;10205;49.678;6.560;2023-07-08T07:00:20;5.55;;;4.45;;
20090;SDS011;10205;49.678;6.560;2023-07-08T07:02:47;6.00;;;4.78;;
20090;SDS011;10205;49.678;6.560;2023-07-08T07:05:15;5.95;;;4.97;;
20090;SDS011;10205;49.678;6.560;2023-07-08T07:07:42;6.85;;;5.53;;
20090;SDS011;10205;49.678;6.560;2023-07-08T07:10:09;7.43;;;5.22;;
20090;SDS011;10205;49.678;6.560;2023-07-08T07:12:36;6.65;;;5.40;;
20090;SDS011;10205;49.678;6.560;2023-07-08T07:15:06;5.90;;;5.18;;
20090;SDS011;10205;49.678;6.560;2023-07-08T07:17:34;10.13;;;6.07;;
20090;SDS011;10205;49.678;6.560;2023-07-08T07:20:01;6.57;;;4.85;;
20090;SDS011;10205;49.678;6.560;2023-07-08T07:22:30;6.63;;;5.03;;
20090;SDS011;10205;49.678;6.560;2023-07-08T07:24:58;6.85;;;5.68;;
20090;SDS011;10205;49.678;6.560;2023-07-08T07:27:26;8.68;;;6.13;;
20090;SDS011;10205;49.678;6.560;2023-07-08T07:29:54;8.30;;;5.65;;
20090;SDS011;10205;49.678;6.560;2023-07-08T07:32:23;6.40;;;5.38;;
20090;SDS011;10205;49.678;6.560;2023-07-08T07:34:51;7.18;;;5.55;;
20090;SDS011;10205;49.678;6.560;2023-07-08T07:40:11;8.77;;;5.22;;
20090;SDS011;10205;49.678;6.560;2023-07-08T07:42:41;6.45;;;5.75;;
20090;SDS011;10205;49.678;6.560;2023-07-08T07:45:10;8.85;;;6.13;;
20090;SDS011;10205;49.678;6.560;2023-07-08T07:47:39;7.93;;;5.72;;
20090;SDS011;10205;49.678;6.560;2023-07-08T07:50:07;8.25;;;6.07;;
20090;SDS011;10205;49.678;6.560;2023-07-08T07:52:35;8.48;;;5.82;;
20090;SDS011;10205;49.678;6.560;2023-07-08T07:55:03;7.18;;;5.82;;
20090;SDS011;10205;49.678;6.560;2023-07-08T08:00:20;8.05;;;5.82;;
20090;SDS011;10205;49.678;6.560;2023-07-08T08:02:49;8.15;;;6.30;;
20090;SDS011;10205;49.678;6.560;2023-07-08T08:05:16;6.78;;;5.38;;
20090;SDS011;10205;49.678;6.560;2023-07-08T08:07:53;6.88;;;5.60;;
20090;SDS011;10205;49.678;6.560;2023-07-08T08:10:20;8.25;;;5.93;;
20090;SDS011;10205;49.678;6.560;2023-07-08T08:12:48;7.60;;;6.63;;
20090;SDS011;10205;49.678;6.560;2023-07-08T08:15:17;8.73;;;5.70;;
20090;SDS011;10205;49.678;6.560;2023-07-08T08:17:45;7.25;;;5.90;;
20090;SDS011;10205;49.678;6.560;2023-07-08T08:20:16;7.22;;;5.78;;
20090;SDS011;10205;49.678;6.560;2023-07-08T08:25:35;8.50;;;5.25;;
20090;SDS011;10205;49.678;6.560;2023-07-08T08:28:02;8.27;;;6.22;;
20090;SDS011;10205;49.678;6.560;2023-07-08T08:30:31;8.77;;;6.47;;
20090;SDS011;10205;49.678;6.560;2023-07-08T08:32:59;7.40;;;5.78;;
20090;SDS011;10205;49.678;6.560;2023-07-08T08:35:28;7.28;;;5.70;;
20090;SDS011;10205;49.678;6.560;2023-07-08T08:37:55;8.30;;;6.47;;
20090;SDS011;10205;49.678;6.560;2023-07-08T08:40:23;6.47;;;5.47;;
20090;SDS011;10205;49.678;6.560;2023-07-08T08:42:51;7.90;;;5.88;;
20090;SDS011;10205;49.678;6.560;2023-07-08T08:45:25;6.05;;;5.30;;
20090;SDS011;10205;49.678;6.560;2023-07-08T08:47:58;7.07;;;5.95;;
20090;SDS011;10205;49.678;6.560;2023-07-08T08:50:32;7.82;;;5.25;;
20090;SDS011;10205;49.678;6.560;2023-07-08T08:53:10;9.77;;;5.47;;
20090;SDS011;10205;49.678;6.560;2023-07-08T08:55:40;6.13;;;5.03;;
20090;SDS011;10205;49.678;6.560;2023-07-08T08:58:11;7.80;;;5.72;;
20090;SDS011;10205;49.678;6.560;2023-07-08T09:00:53;7.63;;;5.80;;
20090;SDS011;10205;49.678;6.560;2023-07-08T09:03:30;7.20;;;6.07;;
20090;SDS011;10205;49.678;6.560;2023-07-08T09:06:16;7.32;;;5.25;;
20090;SDS011;10205;49.678;6.560;2023-07-08T09:08:49;7.63;;;4.93;;
20090;SDS011;10205;49.678;6.560;2023-07-08T09:11:21;6.95;;;5.70;;
20090;SDS011;10205;49.678;6.560;2023-07-08T09:14:06;6.80;;;5.13;;
20090;SDS011;10205;49.678;6.560;2023-07-08T09:16:45;5.93;;;5.00;;
20090;SDS011;10205;49.678;6.560;2023-07-08T09:19:24;8.10;;;5.25;;
20090;SDS011;10205;49.678;6.560;2023-07-08T09:22:01;7.18;;;5.05;;
20090;SDS011;10205;49.678;6.560;2023-07-08T09:24:39;6.95;;;5.05;;
20090;SDS011;10205;49.678;6.560;2023-07-08T09:27:11;7.72;;;5.28;;
20090;SDS011;10205;49.678;6.560;2023-07-08T09:29:39;7.40;;;5.28;;
20090;SDS011;10205;49.678;6.560;2023-07-08T09:32:12;6.30;;;5.32;;
20090;SDS011;10205;49.678;6.560;2023-07-08T09:34:44;9.88;;;5.72;;
20090;SDS011;10205;49.678;6.560;2023-07-08T09:37:36;7.82;;;5.40;;
20090;SDS011;10205;49.678;6.560;2023-07-08T09:40:14;5.20;;;4.70;;
20090;SDS011;10205;49.678;6.560;2023-07-08T09:42:44;9.77;;;5.50;;
20090;SDS011;10205;49.678;6.560;2023-07-08T09:45:17;5.90;;;4.65;;
20090;SDS011;10205;49.678;6.560;2023-07-08T09:47:51;8.45;;;4.93;;
20090;SDS011;10205;49.678;6.560;2023-07-08T09:50:22;6.05;;;5.45;;
20090;SDS011;10205;49.678;6.560;2023-07-08T09:53:02;5.95;;;4.93;;
20090;SDS011;10205;49.678;6.560;2023-07-08T09:55:30;5.20;;;4.65;;
20090;SDS011;10205;49.678;6.560;2023-07-08T09:57:58;6.45;;;5.38;;
20090;SDS011;10205;49.678;6.560;2023-07-08T10:00:28;8.88;;;4.78;;
20090;SDS011;10205;49.678;6.560;2023-07-08T10:03:20;7.85;;;4.38;;
20090;SDS011;10205;49.678;6.560;2023-07-08T10:05:51;6.60;;;4.63;;
20090;SDS011;10205;49.678;6.560;2023-07-08T10:08:39;5.40;;;4.90;;
20090;SDS011;10205;49.678;6.560;2023-07-08T10:11:25;9.18;;;4.85;;
20090;SDS011;10205;49.678;6.560;2023-07-08T10:16:53;5.68;;;4.95;;
20090;SDS011;10205;49.678;6.560;2023-07-08T10:19:21;5.80;;;4.47;;
20090;SDS011;10205;49.678;6.560;2023-07-08T10:21:51;4.68;;;3.80;;
20090;SDS011;10205;49.678;6.560;2023-07-08T10:25:01;8.18;;;4.70;;
20090;SDS011;10205;49.678;6.560;2023-07-08T10:27:40;6.25;;;4.72;;
20090;SDS011;10205;49.678;6.560;2023-07-08T10:30:23;5.30;;;4.38;;
20090;SDS011;10205;49.678;6.560;2023-07-08T10:33:11;5.63;;;4.43;;
20090;SDS011;10205;49.678;6.560;2023-07-08T10:36:02;4.32;;;3.83;;
20090;SDS011;10205;49.678;6.560;2023-07-08T10:39:16;4.63;;;4.13;;
20090;SDS011;10205;49.678;6.560;2023-07-08T10:42:14;7.20;;;4.25;;
20090;SDS011;10205;49.678;6.560;2023-07-08T10:44:58;6.05;;;4.25;;
20090;SDS011;10205;49.678;6.560;2023-07-08T10:47:40;5.10;;;4.22;;
20090;SDS011;10205;49.678;6.560;2023-07-08T10:50:28;5.90;;;4.13;;
20090;SDS011;10205;49.678;6.560;2023-07-08T10:53:20;5.45;;;3.90;;
20090;SDS011;10205;49.678;6.560;2023-07-08T10:56:28;6.15;;;4.30;;
20090;SDS011;10205;49.678;6.560;2023-07-08T10:59:26;6.55;;;3.85;;
20090;SDS011;10205;49.678;6.560;2023-07-08T11:02:25;5.55;;;3.85;;
20090;SDS011;10205;49.678;6.560;2023-07-08T11:05:19;5.78;;;4.15;;
20090;SDS011;10205;49.678;6.560;2023-07-08T11:07:59;6.05;;;4.15;;
20090;SDS011;10205;49.678;6.560;2023-07-08T11:10:36;4.38;;;3.78;;
20090;SDS011;10205;49.678;6.560;2023-07-08T11:13:15;5.88;;;4.00;;
20090;SDS011;10205;49.678;6.560;2023-07-08T11:15:48;5.05;;;4.05;;
20090;SDS011;10205;49.678;6.560;2023-07-08T11:18:24;4.00;;;3.60;;
20090;SDS011;10205;49.678;6.560;2023-07-08T11:21:13;4.13;;;3.72;;
20090;SDS011;10205;49.678;6.560;2023-07-08T11:23:49;4.85;;;4.13;;
20090;SDS011;10205;49.678;6.560;2023-07-08T11:26:23;6.47;;;4.22;;
20090;SDS011;10205;49.678;6.560;2023-07-08T11:32:38;7.32;;;4.15;;
20090;SDS011;10205;49.678;6.560;2023-07-08T11:35:13;6.57;;;4.40;;
20090;SDS011;10205;49.678;6.560;2023-07-08T11:37:48;5.30;;;3.85;;
20090;SDS011;10205;49.678;6.560;2023-07-08T11:40:18;8.23;;;4.55;;
20090;SDS011;10205;49.678;6.560;2023-07-08T11:42:48;5.03;;;4.07;;
20090;SDS011;10205;49.678;6.560;2023-07-08T11:45:23;5.45;;;3.88;;
20090;SDS011;10205;49.678;6.560;2023-07-08T11:48:03;5.75;;;4.03;;
20090;SDS011;10205;49.678;6.560;2023-07-08T11:50:39;4.05;;;3.65;;
20090;SDS011;10205;49.678;6.560;2023-07-08T11:53:10;4.47;;;3.80;;
20090;SDS011;10205;49.678;6.560;2023-07-08T11:55:42;4.47;;;3.97;;
20090;SDS011;10205;49.678;6.560;2023-07-08T11:58:19;4.97;;;4.30;;
20090;SDS011;10205;49.678;6.560;2023-07-08T12:00:54;4.85;;;3.97;;
20090;SDS011;10205;49.678;6.560;2023-07-08T12:03:32;5.35;;;4.20;;
20090;SDS011;10205;49.678;6.560;2023-07-08T12:06:11;4.82;;;3.83;;
20090;SDS011;10205;49.678;6.560;2023-07-08T12:09:15;5.30;;;4.00;;
20090;SDS011;10205;49.678;6.560;2023-07-08T12:12:12;8.07;;;4.20;;
20090;SDS011;10205;49.678;6.560;2023-07-08T12:15:09;5.05;;;4.13;;
20090;SDS011;10205;49.678;6.560;2023-07-08T12:17:41;4.20;;;3.80;;
20090;SDS011;10205;49.678;6.560;2023-07-08T12:20:13;6.47;;;3.63;;
20090;SDS011;10205;49.678;6.560;2023-07-08T12:22:48;4.45;;;3.47;;
20090;SDS011;10205;49.678;6.560;2023-07-08T12:25:17;4.90;;;4.25;;
20090;SDS011;10205;49.678;6.560;2023-07-08T12:27:47;5.53;;;3.88;;
20090;SDS011;10205;49.678;6.560;2023-07-08T12:30:15;3.67;;;3.38;;
20090;SDS011;10205;49.678;6.560;2023-07-08T12:32:43;4.03;;;3.70;;
20090;SDS011;10205;49.678;6.560;2023-07-08T12:35:17;4.63;;;3.88;;
20090;SDS011;10205;49.678;6.560;2023-07-08T12:37:52;4.18;;;3.60;;
20090;SDS011;10205;49.678;6.560;2023-07-08T12:40:24;4.88;;;3.65;;
20090;SDS011;10205;49.678;6.560;2023-07-08T12:42:54;3.50;;;3.20;;
20090;SDS011;10205;49.678;6.560;2023-07-08T12:45:26;4.15;;;3.75;;
20090;SDS011;10205;49.678;6.560;2023-07-08T12:47:57;4.55;;;4.15;;
20090;SDS011;10205;49.678;6.560;2023-07-08T12:50:24;4.80;;;3.60;;
20090;SDS011;10205;49.678;6.560;2023-07-08T12:52:53;4.53;;;3.60;;
20090;SDS011;10205;49.678;6.560;2023-07-08T12:55:22;5.53;;;4.07;;
20090;SDS011;10205;49.678;6.560;2023-07-08T12:58:03;4.35;;;3.83;;
20090;SDS011;10205;49.678;6.560;2023-07-08T13:00:32;4.30;;;3.63;;
20090;SDS011;10205;49.678;6.560;2023-07-08T13:05:39;4.05;;;3.60;;
20090;SDS011;10205;49.678;6.560;2023-07-08T13:08:09;4.18;;;3.78;;
20090;SDS011;10205;49.678;6.560;2023-07-08T13:10:39;4.32;;;3.88;;
20090;SDS011;10205;49.678;6.560;2023-07-08T13:13:10;6.45;;;4.22;;
20090;SDS011;10205;49.678;6.560;2023-07-08T13:15:43;4.60;;;3.92;;
20090;SDS011;10205;49.678;6.560;2023-07-08T13:18:15;3.50;;;3.20;;
20090;SDS011;10205;49.678;6.560;2023-07-08T13:20:47;4.30;;;3.72;;
20090;SDS011;10205;49.678;6.560;2023-07-08T13:23:18;4.30;;;3.90;;
20090;SDS011;10205;49.678;6.560;2023-07-08T13:25:48;4.45;;;3.88;;
20090;SDS011;10205;49.678;6.560;2023-07-08T13:28:18;5.32;;;3.92;;
20090;SDS011;10205;49.678;6.560;2023-07-08T13:30:50;4.40;;;4.00;;
20090;SDS011;10205;49.678;6.560;2023-07-08T13:33:20;4.13;;;3.60;;
20090;SDS011;10205;49.678;6.560;2023-07-08T13:35:51;4.50;;;3.60;;
20090;SDS011;10205;49.678;6.560;2023-07-08T13:38:21;4.88;;;3.65;;
20090;SDS011;10205;49.678;6.560;2023-07-08T13:40:53;4.70;;;3.95;;
20090;SDS011;10205;49.678;6.560;2023-07-08T13:43:23;4.00;;;3.63;;
20090;SDS011;10205;49.678;6.560;2023-07-08T13:45:53;4.03;;;3.60;;
20090;SDS011;10205;49.678;6.560;2023-07-08T13:48:23;4.28;;;3.65;;
20090;SDS011;10205;49.678;6.560;2023-07-08T13:50:57;4.30;;;3.88;;
20090;SDS011;10205;49.678;6.560;2023-07-08T13:53:35;5.00;;;3.42;;
20090;SDS011;10205;49.678;6.560;2023-07-08T13:56:13;4.25;;;3.38;;
20090;SDS011;10205;49.678;6.560;2023-07-08T13:58:45;6.35;;;3.35;;
20090;SDS011;10205;49.678;6.560;2023-07-08T14:01:18;3.88;;;3.50;;
20090;SDS011;10205;49.678;6.560;2023-07-08T14:03:47;4.35;;;3.60;;
20090;SDS011;10205;49.678;6.560;2023-07-08T14:06:17;4.63;;;3.90;;
20090;SDS011;10205;49.678;6.560;2023-07-08T14:08:48;3.97;;;3.60;;
20090;SDS011;10205;49.678;6.560;2023-07-08T14:11:17;3.60;;;3.30;;
20090;SDS011;10205;49.678;6.560;2023-07-08T14:13:45;3.60;;;3.30;;
20090;SDS011;10205;49.678;6.560;2023-07-08T14:16:17;4.00;;;3.60;;
20090;SDS011;10205;49.678;6.560;2023-07-08T14:18:52;3.88;;;3.40;;
20090;SDS011;10205;49.678;6.560;2023-07-08T14:21:22;3.85;;;3.42;;
20090;SDS011;10205;49.678;6.560;2023-07-08T14:23:50;3.42;;;3.13;;
20090;SDS011;10205;49.678;6.560;2023-07-08T14:26:17;3.67;;;3.38;;
20090;SDS011;10205;49.678;6.560;2023-07-08T14:28:44;4.63;;;4.03;;
20090;SDS011;10205;49.678;6.560;2023-07-08T14:31:12;5.22;;;4.07;;
20090;SDS011;10205;49.678;6.560;2023-07-08T14:33:46;3.42;;;3.13;;
20090;SDS011;10205;49.678;6.560;2023-07-08T14:36:14;4.30;;;3.78;;
20090;SDS011;10205;49.678;6.560;2023-07-08T14:38:43;4.03;;;3.63;;
20090;SDS011;10205;49.678;6.560;2023-07-08T14:41:11;3.60;;;3.30;;
20090;SDS011;10205;49.678;6.560;2023-07-08T14:43:39;3.92;;;3.50;;
20090;SDS011;10205;49.678;6.560;2023-07-08T14:46:08;6.45;;;3.50;;
20090;SDS011;10205;49.678;6.560;2023-07-08T14:48:36;3.63;;;3.30;;
20090;SDS011;10205;49.678;6.560;2023-07-08T14:51:05;3.65;;;3.35;;
20090;SDS011;10205;49.678;6.560;2023-07-08T14:53:32;7.70;;;4.05;;
20090;SDS011;10205;49.678;6.560;2023-07-08T14:56:03;5.10;;;3.50;;
20090;SDS011;10205;49.678;6.560;2023-07-08T14:58:39;4.60;;;4.20;;
20090;SDS011;10205;49.678;6.560;2023-07-08T15:01:12;6.10;;;4.22;;
20090;SDS011;10205;49.678;6.560;2023-07-08T15:03:45;5.47;;;3.72;;
20090;SDS011;10205;49.678;6.560;2023-07-08T15:06:13;4.40;;;4.00;;
20090;SDS011;10205;49.678;6.560;2023-07-08T15:08:40;3.90;;;3.50;;
20090;SDS011;10205;49.678;6.560;2023-07-08T15:11:10;7.90;;;3.80;;
20090;SDS011;10205;49.678;6.560;2023-07-08T15:13:39;4.93;;;3.70;;
20090;SDS011;10205;49.678;6.560;2023-07-08T15:16:10;4.90;;;3.60;;
20090;SDS011;10205;49.678;6.560;2023-07-08T15:18:42;4.13;;;3.72;;
20090;SDS011;10205;49.678;6.560;2023-07-08T15:21:10;4.55;;;3.63;;
20090;SDS011;10205;49.678;6.560;2023-07-08T15:23:38;7.07;;;3.40;;
20090;SDS011;10205;49.678;6.560;2023-07-08T15:26:08;5.65;;;3.67;;
20090;SDS011;10205;49.678;6.560;2023-07-08T15:28:40;3.97;;;3.30;;
20090;SDS011;10205;49.678;6.560;2023-07-08T15:31:13;4.72;;;3.90;;
20090;SDS011;10205;49.678;6.560;2023-07-08T15:33:42;3.85;;;3.55;;
20090;SDS011;10205;49.678;6.560;2023-07-08T15:36:10;5.40;;;3.65;;
20090;SDS011;10205;49.678;6.560;2023-07-08T15:38:39;3.53;;;3.22;;
20090;SDS011;10205;49.678;6.560;2023-07-08T15:41:11;4.20;;;3.67;;
20090;SDS011;10205;49.678;6.560;2023-07-08T15:43:46;3.75;;;3.45;;